KWAL/WAL METAR and TAF weather

Enter ICAO airport designator
Station Type Date Time Source
KWAL METAR 2019/02/18 03:54 UTC NOAA

KWAL 180354Z AUTO 00000KT 7SM -RA FEW018 BKN024 OVC031 06/05 A2994 RMK AO2 SLP136 P0016 T00560050 $


Station Type Date Time Source
KWAL Decoded METAR 2019/02/18 03:54 UTC NOAA

WALLOPS FLIGHT FAC AIRPORT , VA, United States (KWAL) 37-56N 075-28W 14M
Feb 17, 2019 - 10:54 PM EST / 2019.02.18 0354 UTC
Wind: Calm:0
Visibility: 7 mile(s):0
Sky conditions: overcast
Weather: light rain
Precipitation last hour: 0.16 inches
Temperature: 42.1 F (5.6 C)
Dew Point: 41.0 F (5.0 C)
Relative Humidity: 95%
Pressure (altimeter): 29.94 in. Hg (1013 hPa)
ob: KWAL 180354Z AUTO 00000KT 7SM -RA FEW018 BKN024 OVC031 06/05 A2994 RMK AO2 SLP136 P0016 T00560050
cycle: 4

Station Type Date Time Source
KWAL TAF UTC NOAA

Error!


Example: see airport list